sensor_id;sensor_type;location;lat;lon;timestamp;pressure;altitude;pressure_sealevel;temperature;humidity
61408;BME280;47274;43.054;25.146;2023-06-22T00:01:31;95882.94;;;18.75;85.34
61408;BME280;47274;43.054;25.146;2023-06-22T00:03:57;95908.03;;;18.89;86.09
61408;BME280;47274;43.054;25.146;2023-06-22T00:06:23;95874.19;;;18.61;85.55
61408;BME280;47274;43.054;25.146;2023-06-22T00:08:48;95907.81;;;18.84;84.57
61408;BME280;47274;43.054;25.146;2023-06-22T00:11:14;95907.34;;;18.74;85.81
61408;BME280;47274;43.054;25.146;2023-06-22T00:13:40;95912.75;;;18.57;87.52
61408;BME280;47274;43.054;25.146;2023-06-22T00:16:06;95921.47;;;18.50;90.04
61408;BME280;47274;43.054;25.146;2023-06-22T00:18:37;95924.09;;;18.50;91.71
61408;BME280;47274;43.054;25.146;2023-06-22T00:21:03;95922.59;;;18.40;94.36
61408;BME280;47274;43.054;25.146;2023-06-22T00:23:29;95869.44;;;18.00;94.31
61408;BME280;47274;43.054;25.146;2023-06-22T00:25:59;95920.47;;;18.29;92.12
61408;BME280;47274;43.054;25.146;2023-06-22T00:28:25;95920.22;;;18.45;87.30
61408;BME280;47274;43.054;25.146;2023-06-22T00:30:51;95883.66;;;18.47;85.32
61408;BME280;47274;43.054;25.146;2023-06-22T00:33:17;95888.41;;;18.65;83.10
61408;BME280;47274;43.054;25.146;2023-06-22T00:35:43;95885.31;;;18.76;82.85
61408;BME280;47274;43.054;25.146;2023-06-22T00:38:10;95890.09;;;18.73;82.68
61408;BME280;47274;43.054;25.146;2023-06-22T00:40:36;95886.53;;;18.74;82.32
61408;BME280;47274;43.054;25.146;2023-06-22T00:43:02;95881.69;;;18.70;82.78
61408;BME280;47274;43.054;25.146;2023-06-22T00:45:28;95918.72;;;19.01;82.21
61408;BME280;47274;43.054;25.146;2023-06-22T00:47:57;95925.06;;;19.20;81.88
61408;BME280;47274;43.054;25.146;2023-06-22T00:50:29;95931.28;;;19.18;82.05
61408;BME280;47274;43.054;25.146;2023-06-22T00:53:06;95935.84;;;19.16;83.10
61408;BME280;47274;43.054;25.146;2023-06-22T00:55:35;95925.34;;;19.03;83.11
61408;BME280;47274;43.054;25.146;2023-06-22T00:58:04;95920.91;;;18.97;83.11
61408;BME280;47274;43.054;25.146;2023-06-22T01:00:33;95905.75;;;19.07;81.78
61408;BME280;47274;43.054;25.146;2023-06-22T01:03:00;95902.03;;;19.16;81.66
61408;BME280;47274;43.054;25.146;2023-06-22T01:05:26;95886.75;;;19.07;81.70
61408;BME280;47274;43.054;25.146;2023-06-22T01:08:24;95895.34;;;19.07;82.11
61408;BME280;47274;43.054;25.146;2023-06-22T01:11:05;95906.28;;;19.24;80.90
61408;BME280;47274;43.054;25.146;2023-06-22T01:16:31;95881.69;;;19.27;80.10
61408;BME280;47274;43.054;25.146;2023-06-22T01:19:02;95894.59;;;19.48;79.41
61408;BME280;47274;43.054;25.146;2023-06-22T01:21:31;95901.69;;;19.61;78.89
61408;BME280;47274;43.054;25.146;2023-06-22T01:24:18;95897.44;;;19.53;79.01
61408;BME280;47274;43.054;25.146;2023-06-22T01:29:40;95894.97;;;19.38;79.18
61408;BME280;47274;43.054;25.146;2023-06-22T01:32:09;95892.53;;;19.37;78.70
61408;BME280;47274;43.054;25.146;2023-06-22T01:34:37;95903.41;;;19.47;78.25
61408;BME280;47274;43.054;25.146;2023-06-22T01:37:06;95894.88;;;19.60;78.13
61408;BME280;47274;43.054;25.146;2023-06-22T01:39:36;95864.31;;;19.34;78.08
61408;BME280;47274;43.054;25.146;2023-06-22T01:42:03;95889.25;;;19.56;78.26
61408;BME280;47274;43.054;25.146;2023-06-22T01:44:30;95902.06;;;19.58;77.69
61408;BME280;47274;43.054;25.146;2023-06-22T01:46:57;95893.44;;;19.57;77.04
61408;BME280;47274;43.054;25.146;2023-06-22T01:49:24;95880.78;;;19.48;77.44
61408;BME280;47274;43.054;25.146;2023-06-22T01:51:50;95898.66;;;19.57;77.97
61408;BME280;47274;43.054;25.146;2023-06-22T01:54:16;95902.66;;;19.53;78.38
61408;BME280;47274;43.054;25.146;2023-06-22T01:56:42;95897.16;;;19.41;78.57
61408;BME280;47274;43.054;25.146;2023-06-22T01:59:12;95909.44;;;19.54;78.25
61408;BME280;47274;43.054;25.146;2023-06-22T02:01:44;95902.66;;;19.53;78.17
61408;BME280;47274;43.054;25.146;2023-06-22T02:04:19;95889.00;;;19.51;77.96
61408;BME280;47274;43.054;25.146;2023-06-22T02:06:49;95913.22;;;19.80;77.30
61408;BME280;47274;43.054;25.146;2023-06-22T02:09:19;95881.81;;;19.53;77.51
61408;BME280;47274;43.054;25.146;2023-06-22T02:11:47;95908.75;;;19.67;77.55
61408;BME280;47274;43.054;25.146;2023-06-22T02:14:15;95901.25;;;19.57;78.01
61408;BME280;47274;43.054;25.146;2023-06-22T02:16:41;95895.81;;;19.46;78.37
61408;BME280;47274;43.054;25.146;2023-06-22T02:19:08;95911.47;;;19.52;78.78
61408;BME280;47274;43.054;25.146;2023-06-22T02:21:34;95905.22;;;19.47;78.84
61408;BME280;47274;43.054;25.146;2023-06-22T02:23:59;95923.25;;;19.55;78.57
61408;BME280;47274;43.054;25.146;2023-06-22T02:26:26;95939.56;;;19.63;79.47
61408;BME280;47274;43.054;25.146;2023-06-22T02:28:53;95932.31;;;19.59;79.52
61408;BME280;47274;43.054;25.146;2023-06-22T02:31:19;95910.59;;;19.38;79.26
61408;BME280;47274;43.054;25.146;2023-06-22T02:33:46;95938.72;;;19.56;79.33
61408;BME280;47274;43.054;25.146;2023-06-22T02:36:12;95913.78;;;19.40;79.79
61408;BME280;47274;43.054;25.146;2023-06-22T02:38:41;95917.72;;;19.30;80.48
61408;BME280;47274;43.054;25.146;2023-06-22T02:41:16;95882.88;;;18.96;80.67
61408;BME280;47274;43.054;25.146;2023-06-22T02:43:48;95937.97;;;19.34;80.67
61408;BME280;47274;43.054;25.146;2023-06-22T02:46:14;95941.00;;;19.38;80.53
61408;BME280;47274;43.054;25.146;2023-06-22T02:48:41;95935.34;;;19.34;80.90
61408;BME280;47274;43.054;25.146;2023-06-22T02:51:08;95917.59;;;19.10;81.36
61408;BME280;47274;43.054;25.146;2023-06-22T02:53:36;95936.31;;;19.27;81.72
61408;BME280;47274;43.054;25.146;2023-06-22T02:56:02;95878.25;;;18.91;80.71
61408;BME280;47274;43.054;25.146;2023-06-22T02:58:34;95937.41;;;19.39;81.48
61408;BME280;47274;43.054;25.146;2023-06-22T03:01:06;95897.19;;;19.13;80.46
61408;BME280;47274;43.054;25.146;2023-06-22T03:03:34;95901.03;;;19.17;81.30
61408;BME280;47274;43.054;25.146;2023-06-22T03:06:00;95931.41;;;19.38;80.25
61408;BME280;47274;43.054;25.146;2023-06-22T03:08:29;95926.78;;;19.40;80.16
61408;BME280;47274;43.054;25.146;2023-06-22T03:10:56;95939.47;;;19.50;80.03
61408;BME280;47274;43.054;25.146;2023-06-22T03:13:23;95928.19;;;19.36;80.49
61408;BME280;47274;43.054;25.146;2023-06-22T03:15:49;95948.06;;;19.51;80.54
61408;BME280;47274;43.054;25.146;2023-06-22T03:18:15;95950.72;;;19.57;79.66
61408;BME280;47274;43.054;25.146;2023-06-22T03:20:41;95950.53;;;19.59;79.55
61408;BME280;47274;43.054;25.146;2023-06-22T03:23:08;95953.19;;;19.65;79.46
61408;BME280;47274;43.054;25.146;2023-06-22T03:25:35;95945.13;;;19.60;79.40
61408;BME280;47274;43.054;25.146;2023-06-22T03:28:02;95951.22;;;19.68;79.76
61408;BME280;47274;43.054;25.146;2023-06-22T03:30:28;95951.88;;;19.76;79.14
61408;BME280;47274;43.054;25.146;2023-06-22T03:32:54;95925.75;;;19.63;78.71
61408;BME280;47274;43.054;25.146;2023-06-22T03:35:20;95933.41;;;19.71;79.08
61408;BME280;47274;43.054;25.146;2023-06-22T03:37:47;95913.53;;;19.63;79.11
61408;BME280;47274;43.054;25.146;2023-06-22T03:40:13;95931.44;;;19.80;78.98
61408;BME280;47274;43.054;25.146;2023-06-22T03:42:40;95954.56;;;20.03;78.59
61408;BME280;47274;43.054;25.146;2023-06-22T03:45:06;95923.66;;;19.86;78.82
61408;BME280;47274;43.054;25.146;2023-06-22T03:47:33;95942.16;;;20.05;78.67
61408;BME280;47274;43.054;25.146;2023-06-22T03:49:59;95939.97;;;20.08;77.54
61408;BME280;47274;43.054;25.146;2023-06-22T03:52:25;95925.53;;;20.06;77.70
61408;BME280;47274;43.054;25.146;2023-06-22T03:54:51;95944.03;;;20.24;77.88
61408;BME280;47274;43.054;25.146;2023-06-22T03:57:17;95933.63;;;20.31;77.37
61408;BME280;47274;43.054;25.146;2023-06-22T03:59:43;95927.41;;;20.32;77.36
61408;BME280;47274;43.054;25.146;2023-06-22T04:02:09;95942.53;;;20.56;76.46
61408;BME280;47274;43.054;25.146;2023-06-22T04:04:34;95928.69;;;20.63;75.88
61408;BME280;47274;43.054;25.146;2023-06-22T04:07:04;95959.41;;;20.94;75.03
61408;BME280;47274;43.054;25.146;2023-06-22T04:09:33;95902.00;;;20.67;75.58
61408;BME280;47274;43.054;25.146;2023-06-22T04:11:59;95910.66;;;20.81;75.39
61408;BME280;47274;43.054;25.146;2023-06-22T04:14:25;95950.56;;;21.15;74.46
61408;BME280;47274;43.054;25.146;2023-06-22T04:16:51;95948.75;;;21.28;74.42
61408;BME280;47274;43.054;25.146;2023-06-22T04:19:17;95973.69;;;21.51;73.82
61408;BME280;47274;43.054;25.146;2023-06-22T04:21:44;95938.31;;;21.28;74.01
61408;BME280;47274;43.054;25.146;2023-06-22T04:24:11;95939.94;;;21.16;74.94
61408;BME280;47274;43.054;25.146;2023-06-22T04:26:39;95936.94;;;20.99;76.25
61408;BME280;47274;43.054;25.146;2023-06-22T04:29:07;95987.13;;;21.15;76.51
61408;BME280;47274;43.054;25.146;2023-06-22T04:31:36;95983.50;;;21.22;76.53
61408;BME280;47274;43.054;25.146;2023-06-22T04:34:04;95987.28;;;21.33;75.57
61408;BME280;47274;43.054;25.146;2023-06-22T04:36:35;95949.16;;;21.32;75.26
61408;BME280;47274;43.054;25.146;2023-06-22T04:39:07;95986.09;;;21.69;75.11
61408;BME280;47274;43.054;25.146;2023-06-22T04:41:36;95969.78;;;21.73;75.06
61408;BME280;47274;43.054;25.146;2023-06-22T04:44:17;95979.66;;;21.78;74.66
61408;BME280;47274;43.054;25.146;2023-06-22T04:46:54;95993.69;;;21.84;74.74
61408;BME280;47274;43.054;25.146;2023-06-22T04:49:26;95985.03;;;21.90;74.31
61408;BME280;47274;43.054;25.146;2023-06-22T04:52:03;95952.88;;;21.89;73.73
61408;BME280;47274;43.054;25.146;2023-06-22T04:54:32;95991.75;;;22.31;73.13
61408;BME280;47274;43.054;25.146;2023-06-22T04:57:00;95988.28;;;22.43;72.87
61408;BME280;47274;43.054;25.146;2023-06-22T04:59:30;95969.59;;;22.40;71.50
61408;BME280;47274;43.054;25.146;2023-06-22T05:01:59;95973.00;;;22.40;72.09
61408;BME280;47274;43.054;25.146;2023-06-22T05:04:27;95939.22;;;22.32;71.72
61408;BME280;47274;43.054;25.146;2023-06-22T05:07:02;95978.66;;;22.69;70.76
61408;BME280;47274;43.054;25.146;2023-06-22T05:09:31;95996.25;;;22.87;71.35
61408;BME280;47274;43.054;25.146;2023-06-22T05:11:59;95999.03;;;22.99;71.50
61408;BME280;47274;43.054;25.146;2023-06-22T05:14:28;95989.31;;;23.06;71.79
61408;BME280;47274;43.054;25.146;2023-06-22T05:16:58;95980.75;;;23.17;71.50
61408;BME280;47274;43.054;25.146;2023-06-22T05:19:25;95959.06;;;23.10;71.19
61408;BME280;47274;43.054;25.146;2023-06-22T05:21:57;95974.00;;;23.28;71.06
61408;BME280;47274;43.054;25.146;2023-06-22T05:24:22;95991.25;;;23.42;71.13
61408;BME280;47274;43.054;25.146;2023-06-22T05:26:48;95991.66;;;23.39;71.74
61408;BME280;47274;43.054;25.146;2023-06-22T05:29:14;95994.41;;;23.26;72.85
61408;BME280;47274;43.054;25.146;2023-06-22T05:31:44;95974.06;;;23.21;73.14
61408;BME280;47274;43.054;25.146;2023-06-22T05:34:10;95997.72;;;23.58;71.50
61408;BME280;47274;43.054;25.146;2023-06-22T05:36:35;95977.78;;;23.57;70.83
61408;BME280;47274;43.054;25.146;2023-06-22T05:39:11;95985.31;;;23.72;71.18
61408;BME280;47274;43.054;25.146;2023-06-22T05:41:45;95989.13;;;23.94;70.08
61408;BME280;47274;43.054;25.146;2023-06-22T05:44:14;95990.28;;;23.98;69.06
61408;BME280;47274;43.054;25.146;2023-06-22T05:46:43;96005.22;;;24.16;69.11
61408;BME280;47274;43.054;25.146;2023-06-22T05:49:14;95994.28;;;24.19;69.89
61408;BME280;47274;43.054;25.146;2023-06-22T05:51:41;95986.28;;;24.14;68.37
61408;BME280;47274;43.054;25.146;2023-06-22T05:54:19;95960.06;;;23.96;68.04
61408;BME280;47274;43.054;25.146;2023-06-22T05:56:52;95953.34;;;24.00;67.80
61408;BME280;47274;43.054;25.146;2023-06-22T05:59:23;95968.50;;;24.16;67.89
61408;BME280;47274;43.054;25.146;2023-06-22T06:01:51;95962.59;;;24.21;67.09
61408;BME280;47274;43.054;25.146;2023-06-22T06:04:20;95966.81;;;24.22;66.00
61408;BME280;47274;43.054;25.146;2023-06-22T06:06:46;96004.97;;;24.54;66.20
61408;BME280;47274;43.054;25.146;2023-06-22T06:09:14;95982.03;;;24.13;64.80
61408;BME280;47274;43.054;25.146;2023-06-22T06:11:40;95956.66;;;23.95;67.27
61408;BME280;47274;43.054;25.146;2023-06-22T06:14:09;95964.34;;;24.08;65.70
61408;BME280;47274;43.054;25.146;2023-06-22T06:16:35;95998.34;;;24.33;65.90
61408;BME280;47274;43.054;25.146;2023-06-22T13:19:02;95915.06;;;30.11;48.42
61408;BME280;47274;43.054;25.146;2023-06-22T13:21:30;95903.91;;;29.88;50.40
61408;BME280;47274;43.054;25.146;2023-06-22T13:23:57;95880.25;;;29.66;45.73
61408;BME280;47274;43.054;25.146;2023-06-22T13:26:26;95871.44;;;29.50;46.74
61408;BME280;47274;43.054;25.146;2023-06-22T13:29:04;95855.75;;;29.34;46.20
61408;BME280;47274;43.054;25.146;2023-06-22T13:31:30;95911.81;;;29.83;46.82
61408;BME280;47274;43.054;25.146;2023-06-22T13:33:56;95913.75;;;30.08;45.50
61408;BME280;47274;43.054;25.146;2023-06-22T13:36:29;95938.19;;;30.31;47.71
61408;BME280;47274;43.054;25.146;2023-06-22T13:38:58;95895.03;;;30.30;46.83
61408;BME280;47274;43.054;25.146;2023-06-22T13:41:25;95896.63;;;30.26;46.56
61408;BME280;47274;43.054;25.146;2023-06-22T13:43:51;95899.03;;;30.48;45.99
61408;BME280;47274;43.054;25.146;2023-06-22T13:46:17;95959.78;;;30.96;47.59
61408;BME280;47274;43.054;25.146;2023-06-22T13:48:43;95881.56;;;30.57;44.05
61408;BME280;47274;43.054;25.146;2023-06-22T13:51:09;95917.31;;;30.70;46.11
61408;BME280;47274;43.054;25.146;2023-06-22T13:53:37;95922.13;;;30.83;45.57
61408;BME280;47274;43.054;25.146;2023-06-22T13:56:10;95891.59;;;30.45;44.15
61408;BME280;47274;43.054;25.146;2023-06-22T13:58:38;95951.47;;;30.51;43.89
61408;BME280;47274;43.054;25.146;2023-06-22T14:01:04;95876.59;;;29.78;44.35
61408;BME280;47274;43.054;25.146;2023-06-22T14:03:35;95873.16;;;29.72;42.10
61408;BME280;47274;43.054;25.146;2023-06-22T14:06:01;95871.34;;;29.83;44.04
61408;BME280;47274;43.054;25.146;2023-06-22T14:08:28;95867.38;;;29.85;45.05
61408;BME280;47274;43.054;25.146;2023-06-22T14:10:56;95860.81;;;30.03;45.57
61408;BME280;47274;43.054;25.146;2023-06-22T14:13:22;95930.81;;;30.48;45.34
61408;BME280;47274;43.054;25.146;2023-06-22T14:15:48;95890.72;;;30.09;45.68
61408;BME280;47274;43.054;25.146;2023-06-22T14:18:14;95935.19;;;30.07;45.35
61408;BME280;47274;43.054;25.146;2023-06-22T14:20:40;95876.84;;;29.23;47.60
61408;BME280;47274;43.054;25.146;2023-06-22T14:23:09;95894.53;;;28.86;47.50
61408;BME280;47274;43.054;25.146;2023-06-22T14:25:35;95873.94;;;28.28;47.87
61408;BME280;47274;43.054;25.146;2023-06-22T14:28:01;95872.94;;;28.07;49.42
61408;BME280;47274;43.054;25.146;2023-06-22T14:30:27;95933.59;;;28.29;48.96
61408;BME280;47274;43.054;25.146;2023-06-22T14:32:56;95882.19;;;27.83;50.22
61408;BME280;47274;43.054;25.146;2023-06-22T14:35:24;95843.56;;;27.33;50.70
61408;BME280;47274;43.054;25.146;2023-06-22T14:37:50;95846.38;;;27.26;51.69
61408;BME280;47274;43.054;25.146;2023-06-22T14:40:16;95913.22;;;27.59;50.95
61408;BME280;47274;43.054;25.146;2023-06-22T14:42:42;95915.50;;;27.50;51.21
61408;BME280;47274;43.054;25.146;2023-06-22T14:45:08;95846.66;;;26.91;51.69
61408;BME280;47274;43.054;25.146;2023-06-22T14:47:34;95862.34;;;27.03;52.05
61408;BME280;47274;43.054;25.146;2023-06-22T14:50:00;95852.16;;;26.89;53.77
61408;BME280;47274;43.054;25.146;2023-06-22T14:52:28;95852.75;;;26.75;55.12
61408;BME280;47274;43.054;25.146;2023-06-22T14:54:54;95879.91;;;26.80;55.10
61408;BME280;47274;43.054;25.146;2023-06-22T14:57:23;95841.59;;;26.39;55.57
61408;BME280;47274;43.054;25.146;2023-06-22T14:59:51;95861.03;;;26.50;54.61
61408;BME280;47274;43.054;25.146;2023-06-22T15:02:17;95838.41;;;26.37;52.62
61408;BME280;47274;43.054;25.146;2023-06-22T15:04:43;95833.84;;;26.32;54.23
61408;BME280;47274;43.054;25.146;2023-06-22T15:07:09;95863.63;;;26.33;57.84
61408;BME280;47274;43.054;25.146;2023-06-22T15:09:35;95831.72;;;25.60;58.60
61408;BME280;47274;43.054;25.146;2023-06-22T15:12:03;95820.75;;;24.99;58.09
61408;BME280;47274;43.054;25.146;2023-06-22T15:14:43;95836.38;;;25.29;57.74
61408;BME280;47274;43.054;25.146;2023-06-22T15:17:09;95851.38;;;25.69;57.72
61408;BME280;47274;43.054;25.146;2023-06-22T15:19:38;95839.56;;;25.84;57.08
61408;BME280;47274;43.054;25.146;2023-06-22T15:22:13;95821.81;;;25.91;59.57
61408;BME280;47274;43.054;25.146;2023-06-22T15:24:39;95831.13;;;26.10;56.37
61408;BME280;47274;43.054;25.146;2023-06-22T15:27:05;95838.06;;;26.16;56.90
61408;BME280;47274;43.054;25.146;2023-06-22T15:29:31;95855.84;;;26.55;57.88
61408;BME280;47274;43.054;25.146;2023-06-22T15:31:59;95839.09;;;25.87;58.01
61408;BME280;47274;43.054;25.146;2023-06-22T15:34:25;95869.53;;;26.11;58.66
61408;BME280;47274;43.054;25.146;2023-06-22T15:36:51;95872.34;;;26.50;58.33
61408;BME280;47274;43.054;25.146;2023-06-22T15:39:19;95848.09;;;26.48;56.61
61408;BME280;47274;43.054;25.146;2023-06-22T15:41:45;95904.44;;;26.81;57.16
61408;BME280;47274;43.054;25.146;2023-06-22T15:44:11;95922.06;;;26.80;57.66
61408;BME280;47274;43.054;25.146;2023-06-22T15:46:36;95918.38;;;26.64;57.61
61408;BME280;47274;43.054;25.146;2023-06-22T15:49:02;95911.59;;;26.52;57.02
61408;BME280;47274;43.054;25.146;2023-06-22T15:51:28;95922.13;;;26.52;58.17
61408;BME280;47274;43.054;25.146;2023-06-22T15:53:54;95928.63;;;26.49;58.27
61408;BME280;47274;43.054;25.146;2023-06-22T15:56:20;95923.69;;;26.24;56.86
61408;BME280;47274;43.054;25.146;2023-06-22T15:58:46;95925.22;;;25.68;59.13
61408;BME280;47274;43.054;25.146;2023-06-22T16:01:12;95903.50;;;25.02;63.41
61408;BME280;47274;43.054;25.146;2023-06-22T16:03:37;95899.59;;;24.81;65.97
61408;BME280;47274;43.054;25.146;2023-06-22T16:06:04;95932.47;;;24.83;65.54
61408;BME280;47274;43.054;25.146;2023-06-22T16:08:30;95899.78;;;24.26;67.07
61408;BME280;47274;43.054;25.146;2023-06-22T16:10:56;95890.50;;;24.11;66.75
61408;BME280;47274;43.054;25.146;2023-06-22T16:13:22;95919.59;;;24.40;65.78
61408;BME280;47274;43.054;25.146;2023-06-22T16:15:48;95919.38;;;24.42;63.95
61408;BME280;47274;43.054;25.146;2023-06-22T16:18:14;95934.94;;;24.36;65.53
61408;BME280;47274;43.054;25.146;2023-06-22T16:20:41;95912.09;;;23.95;66.96
61408;BME280;47274;43.054;25.146;2023-06-22T16:23:09;95943.63;;;24.07;68.04
61408;BME280;47274;43.054;25.146;2023-06-22T16:25:34;95938.28;;;23.95;67.95
61408;BME280;47274;43.054;25.146;2023-06-22T16:28:03;95908.00;;;23.99;68.48
61408;BME280;47274;43.054;25.146;2023-06-22T16:30:28;95936.47;;;24.14;68.37
61408;BME280;47274;43.054;25.146;2023-06-22T16:32:56;95938.81;;;24.04;68.93
61408;BME280;47274;43.054;25.146;2023-06-22T16:35:27;95929.88;;;23.93;69.28
61408;BME280;47274;43.054;25.146;2023-06-22T16:37:55;95922.00;;;23.93;68.33
61408;BME280;47274;43.054;25.146;2023-06-22T16:40:21;95904.59;;;23.80;67.88
61408;BME280;47274;43.054;25.146;2023-06-22T16:42:48;95937.25;;;24.15;68.57
61408;BME280;47274;43.054;25.146;2023-06-22T16:45:14;95920.16;;;24.12;66.16
61408;BME280;47274;43.054;25.146;2023-06-22T16:47:45;95906.50;;;24.22;65.79
61408;BME280;47274;43.054;25.146;2023-06-22T16:50:11;95920.81;;;24.38;64.05
61408;BME280;47274;43.054;25.146;2023-06-22T16:52:36;95911.84;;;24.15;65.41
61408;BME280;47274;43.054;25.146;2023-06-22T16:55:05;95924.88;;;24.22;67.27
61408;BME280;47274;43.054;25.146;2023-06-22T16:57:31;95927.06;;;24.06;69.13
61408;BME280;47274;43.054;25.146;2023-06-22T16:59:57;95926.97;;;23.83;71.86
61408;BME280;47274;43.054;25.146;2023-06-22T17:02:25;95939.66;;;23.42;76.39
61408;BME280;47274;43.054;25.146;2023-06-22T17:04:52;95925.66;;;23.30;74.91
61408;BME280;47274;43.054;25.146;2023-06-22T17:07:26;95919.75;;;23.16;76.17
61408;BME280;47274;43.054;25.146;2023-06-22T17:09:53;95933.44;;;23.18;76.49
61408;BME280;47274;43.054;25.146;2023-06-22T17:12:21;95953.19;;;23.14;76.19
61408;BME280;47274;43.054;25.146;2023-06-22T17:14:51;95913.06;;;22.70;75.64
61408;BME280;47274;43.054;25.146;2023-06-22T17:17:18;95927.94;;;22.70;74.95
61408;BME280;47274;43.054;25.146;2023-06-22T17:19:44;95919.81;;;22.53;74.89
61408;BME280;47274;43.054;25.146;2023-06-22T17:22:11;95947.81;;;22.46;74.26
61408;BME280;47274;43.054;25.146;2023-06-22T17:24:37;95874.16;;;22.17;72.95
61408;BME280;47274;43.054;25.146;2023-06-22T17:27:06;95939.50;;;22.56;72.38
61408;BME280;47274;43.054;25.146;2023-06-22T17:29:32;95908.22;;;22.36;70.73
61408;BME280;47274;43.054;25.146;2023-06-22T17:32:01;95944.34;;;22.52;71.08
61408;BME280;47274;43.054;25.146;2023-06-22T17:34:29;95943.09;;;22.61;70.73
61408;BME280;47274;43.054;25.146;2023-06-22T17:36:56;95940.09;;;22.58;70.55
61408;BME280;47274;43.054;25.146;2023-06-22T17:39:23;95888.56;;;22.33;69.14
61408;BME280;47274;43.054;25.146;2023-06-22T17:41:50;95915.81;;;22.51;69.72
61408;BME280;47274;43.054;25.146;2023-06-22T17:44:26;95925.84;;;22.54;69.87
61408;BME280;47274;43.054;25.146;2023-06-22T17:46:56;95934.66;;;22.59;69.63
61408;BME280;47274;43.054;25.146;2023-06-22T17:49:29;95939.41;;;22.69;69.85
61408;BME280;47274;43.054;25.146;2023-06-22T17:51:57;95927.84;;;22.52;69.77
61408;BME280;47274;43.054;25.146;2023-06-22T17:54:22;95927.28;;;22.50;69.53
61408;BME280;47274;43.054;25.146;2023-06-22T17:56:51;95929.31;;;22.47;69.90
61408;BME280;47274;43.054;25.146;2023-06-22T17:59:20;95938.69;;;22.55;69.80
61408;BME280;47274;43.054;25.146;2023-06-22T18:01:47;95935.94;;;22.50;69.75
61408;BME280;47274;43.054;25.146;2023-06-22T18:04:15;95926.88;;;22.46;70.15
61408;BME280;47274;43.054;25.146;2023-06-22T18:06:43;95923.13;;;22.35;70.75
61408;BME280;47274;43.054;25.146;2023-06-22T18:09:11;95935.22;;;22.36;70.91
61408;BME280;47274;43.054;25.146;2023-06-22T18:11:48;95937.00;;;22.36;70.20
61408;BME280;47274;43.054;25.146;2023-06-22T18:14:18;95929.78;;;22.31;70.19
61408;BME280;47274;43.054;25.146;2023-06-22T18:16:46;95945.28;;;22.33;70.97
61408;BME280;47274;43.054;25.146;2023-06-22T18:19:16;95924.44;;;22.19;71.19
61408;BME280;47274;43.054;25.146;2023-06-22T18:21:47;95924.44;;;22.13;71.90
61408;BME280;47274;43.054;25.146;2023-06-22T18:24:15;95923.66;;;22.06;73.27
61408;BME280;47274;43.054;25.146;2023-06-22T18:26:41;95949.22;;;21.97;75.70
61408;BME280;47274;43.054;25.146;2023-06-22T18:29:08;95937.84;;;21.78;76.39
61408;BME280;47274;43.054;25.146;2023-06-22T18:31:34;95953.50;;;21.85;76.76
61408;BME280;47274;43.054;25.146;2023-06-22T18:34:00;95930.25;;;21.63;76.58
61408;BME280;47274;43.054;25.146;2023-06-22T18:36:34;95955.69;;;21.81;76.71
61408;BME280;47274;43.054;25.146;2023-06-22T18:39:04;95938.69;;;21.65;76.32
61408;BME280;47274;43.054;25.146;2023-06-22T18:44:00;95942.88;;;21.66;74.95
61408;BME280;47274;43.054;25.146;2023-06-22T18:46:34;95942.69;;;21.74;74.68
61408;BME280;47274;43.054;25.146;2023-06-22T18:54:48;95977.78;;;21.98;74.83
61408;BME280;47274;43.054;25.146;2023-06-22T18:57:22;95984.22;;;21.96;74.95
61408;BME280;47274;43.054;25.146;2023-06-22T19:02:47;95980.03;;;21.88;76.77
61408;BME280;47274;43.054;25.146;2023-06-22T19:05:39;95980.22;;;21.87;77.04
61408;BME280;47274;43.054;25.146;2023-06-22T19:08:06;95952.38;;;21.61;77.13
61408;BME280;47274;43.054;25.146;2023-06-22T19:15:43;95975.06;;;21.53;79.25
61408;BME280;47274;43.054;25.146;2023-06-22T19:18:18;95936.72;;;21.27;79.64
61408;BME280;47274;43.054;25.146;2023-06-22T19:20:52;95974.25;;;21.53;79.71
61408;BME280;47274;43.054;25.146;2023-06-22T19:23:38;95961.63;;;21.43;80.01
61408;BME280;47274;43.054;25.146;2023-06-22T19:26:09;95957.41;;;21.36;80.18
61408;BME280;47274;43.054;25.146;2023-06-22T19:28:47;95968.44;;;21.31;80.78
61408;BME280;47274;43.054;25.146;2023-06-22T19:31:15;95980.72;;;21.37;81.25
61408;BME280;47274;43.054;25.146;2023-06-22T19:33:44;95951.59;;;21.20;81.65
61408;BME280;47274;43.054;25.146;2023-06-22T19:36:10;95941.34;;;21.19;81.59
61408;BME280;47274;43.054;25.146;2023-06-22T19:38:39;95955.97;;;21.33;81.82
61408;BME280;47274;43.054;25.146;2023-06-22T19:41:09;95953.19;;;21.28;81.37
61408;BME280;47274;43.054;25.146;2023-06-22T19:43:35;95941.94;;;21.21;81.59
61408;BME280;47274;43.054;25.146;2023-06-22T19:46:04;95953.19;;;21.21;81.81
61408;BME280;47274;43.054;25.146;2023-06-22T19:48:31;95941.34;;;20.99;82.23
61408;BME280;47274;43.054;25.146;2023-06-22T19:51:03;95955.63;;;21.03;83.17
61408;BME280;47274;43.054;25.146;2023-06-22T19:53:32;95981.09;;;21.21;83.18
61408;BME280;47274;43.054;25.146;2023-06-22T19:55:58;95969.25;;;21.12;83.29
61408;BME280;47274;43.054;25.146;2023-06-22T19:58:26;95962.63;;;21.09;83.83
61408;BME280;47274;43.054;25.146;2023-06-22T20:00:55;95947.16;;;21.08;83.27
61408;BME280;47274;43.054;25.146;2023-06-22T20:03:39;95959.22;;;21.09;83.27
61408;BME280;47274;43.054;25.146;2023-06-22T20:06:14;95960.00;;;21.22;82.14
61408;BME280;47274;43.054;25.146;2023-06-22T20:08:49;95966.25;;;21.35;80.54
61408;BME280;47274;43.054;25.146;2023-06-22T20:11:29;95886.59;;;20.92;79.52
61408;BME280;47274;43.054;25.146;2023-06-22T20:13:55;95936.09;;;21.25;79.14
61408;BME280;47274;43.054;25.146;2023-06-22T20:16:22;95894.59;;;21.04;79.32
61408;BME280;47274;43.054;25.146;2023-06-22T20:18:49;95913.25;;;21.08;80.19